sensor_id;sensor_type;location;lat;lon;timestamp;P1;durP1;ratioP1;P2;durP2;ratioP2
14139;SDS011;7150;53.514;9.988;2023-08-21T00:01:01;12.40;;;4.63;;
14139;SDS011;7150;53.514;9.988;2023-08-21T00:03:27;11.70;;;4.63;;
14139;SDS011;7150;53.514;9.988;2023-08-21T00:05:52;13.43;;;4.10;;
14139;SDS011;7150;53.514;9.988;2023-08-21T00:08:18;16.07;;;4.87;;
14139;SDS011;7150;53.514;9.988;2023-08-21T00:10:43;11.93;;;4.30;;
14139;SDS011;7150;53.514;9.988;2023-08-21T00:13:09;10.50;;;4.43;;
14139;SDS011;7150;53.514;9.988;2023-08-21T00:15:34;7.60;;;4.30;;
14139;SDS011;7150;53.514;9.988;2023-08-21T00:18:02;11.17;;;5.07;;
14139;SDS011;7150;53.514;9.988;2023-08-21T00:20:27;12.97;;;5.23;;
14139;SDS011;7150;53.514;9.988;2023-08-21T00:22:53;10.83;;;4.43;;
14139;SDS011;7150;53.514;9.988;2023-08-21T00:25:20;10.27;;;4.20;;
14139;SDS011;7150;53.514;9.988;2023-08-21T00:27:46;9.23;;;4.30;;
14139;SDS011;7150;53.514;9.988;2023-08-21T00:30:11;12.83;;;4.27;;
14139;SDS011;7150;53.514;9.988;2023-08-21T00:32:39;9.13;;;4.27;;
14139;SDS011;7150;53.514;9.988;2023-08-21T00:35:05;9.20;;;4.43;;
14139;SDS011;7150;53.514;9.988;2023-08-21T00:37:31;8.77;;;4.07;;
14139;SDS011;7150;53.514;9.988;2023-08-21T00:39:56;11.20;;;3.97;;
14139;SDS011;7150;53.514;9.988;2023-08-21T00:42:22;9.20;;;4.10;;
14139;SDS011;7150;53.514;9.988;2023-08-21T00:44:47;10.43;;;4.23;;
14139;SDS011;7150;53.514;9.988;2023-08-21T00:47:13;10.53;;;4.23;;
14139;SDS011;7150;53.514;9.988;2023-08-21T00:49:38;9.87;;;3.70;;
14139;SDS011;7150;53.514;9.988;2023-08-21T00:52:05;7.77;;;3.67;;
14139;SDS011;7150;53.514;9.988;2023-08-21T00:54:33;11.43;;;4.10;;
14139;SDS011;7150;53.514;9.988;2023-08-21T00:56:59;7.43;;;4.13;;
14139;SDS011;7150;53.514;9.988;2023-08-21T00:59:24;7.90;;;4.00;;
14139;SDS011;7150;53.514;9.988;2023-08-21T01:01:50;12.87;;;4.40;;
14139;SDS011;7150;53.514;9.988;2023-08-21T01:04:16;9.70;;;3.50;;
14139;SDS011;7150;53.514;9.988;2023-08-21T01:06:42;10.27;;;3.97;;
14139;SDS011;7150;53.514;9.988;2023-08-21T01:09:08;13.13;;;4.40;;
14139;SDS011;7150;53.514;9.988;2023-08-21T01:11:50;11.37;;;4.57;;
14139;SDS011;7150;53.514;9.988;2023-08-21T01:17:23;7.80;;;3.80;;
14139;SDS011;7150;53.514;9.988;2023-08-21T01:19:50;10.97;;;4.43;;
14139;SDS011;7150;53.514;9.988;2023-08-21T01:22:16;9.67;;;4.40;;
14139;SDS011;7150;53.514;9.988;2023-08-21T01:24:42;7.50;;;4.17;;
14139;SDS011;7150;53.514;9.988;2023-08-21T01:27:08;7.93;;;4.37;;
14139;SDS011;7150;53.514;9.988;2023-08-21T01:29:35;9.23;;;4.00;;
14139;SDS011;7150;53.514;9.988;2023-08-21T01:34:41;9.57;;;3.77;;
14139;SDS011;7150;53.514;9.988;2023-08-21T01:37:07;13.50;;;4.93;;
14139;SDS011;7150;53.514;9.988;2023-08-21T01:39:33;13.63;;;5.00;;
14139;SDS011;7150;53.514;9.988;2023-08-21T01:41:59;14.53;;;4.23;;
14139;SDS011;7150;53.514;9.988;2023-08-21T01:44:25;9.73;;;3.90;;
14139;SDS011;7150;53.514;9.988;2023-08-21T01:46:51;13.10;;;4.93;;
14139;SDS011;7150;53.514;9.988;2023-08-21T01:49:17;15.47;;;5.97;;
14139;SDS011;7150;53.514;9.988;2023-08-21T01:51:44;9.53;;;4.90;;
14139;SDS011;7150;53.514;9.988;2023-08-21T01:54:09;13.50;;;5.30;;
14139;SDS011;7150;53.514;9.988;2023-08-21T01:56:35;13.93;;;5.20;;
14139;SDS011;7150;53.514;9.988;2023-08-21T01:59:01;15.90;;;6.00;;
14139;SDS011;7150;53.514;9.988;2023-08-21T02:01:27;12.80;;;5.50;;
14139;SDS011;7150;53.514;9.988;2023-08-21T02:03:52;11.83;;;4.80;;
14139;SDS011;7150;53.514;9.988;2023-08-21T02:06:18;16.77;;;5.47;;
14139;SDS011;7150;53.514;9.988;2023-08-21T02:08:43;12.67;;;5.27;;
14139;SDS011;7150;53.514;9.988;2023-08-21T02:11:09;10.67;;;5.43;;
14139;SDS011;7150;53.514;9.988;2023-08-21T02:13:34;14.47;;;5.00;;
14139;SDS011;7150;53.514;9.988;2023-08-21T02:16:00;19.90;;;6.50;;
14139;SDS011;7150;53.514;9.988;2023-08-21T02:18:25;13.33;;;5.07;;
14139;SDS011;7150;53.514;9.988;2023-08-21T02:20:51;13.40;;;5.50;;
14139;SDS011;7150;53.514;9.988;2023-08-21T02:23:17;12.23;;;4.80;;
14139;SDS011;7150;53.514;9.988;2023-08-21T02:25:43;13.57;;;5.83;;
14139;SDS011;7150;53.514;9.988;2023-08-21T02:28:08;9.60;;;4.43;;
14139;SDS011;7150;53.514;9.988;2023-08-21T02:30:34;14.83;;;5.63;;
14139;SDS011;7150;53.514;9.988;2023-08-21T02:32:59;12.57;;;5.67;;
14139;SDS011;7150;53.514;9.988;2023-08-21T02:35:25;11.67;;;5.47;;
14139;SDS011;7150;53.514;9.988;2023-08-21T02:37:50;13.10;;;5.20;;
14139;SDS011;7150;53.514;9.988;2023-08-21T02:40:16;16.80;;;5.67;;
14139;SDS011;7150;53.514;9.988;2023-08-21T02:42:41;16.13;;;5.40;;
14139;SDS011;7150;53.514;9.988;2023-08-21T02:45:07;17.90;;;5.20;;
14139;SDS011;7150;53.514;9.988;2023-08-21T02:47:36;17.07;;;5.07;;
14139;SDS011;7150;53.514;9.988;2023-08-21T02:50:03;9.60;;;4.50;;
14139;SDS011;7150;53.514;9.988;2023-08-21T02:52:29;12.03;;;5.07;;
14139;SDS011;7150;53.514;9.988;2023-08-21T02:54:56;16.10;;;5.30;;
14139;SDS011;7150;53.514;9.988;2023-08-21T02:57:21;14.27;;;4.63;;
14139;SDS011;7150;53.514;9.988;2023-08-21T02:59:47;12.27;;;5.00;;
14139;SDS011;7150;53.514;9.988;2023-08-21T03:02:13;14.47;;;4.93;;
14139;SDS011;7150;53.514;9.988;2023-08-21T03:04:38;12.30;;;4.70;;
14139;SDS011;7150;53.514;9.988;2023-08-21T03:07:04;14.17;;;4.73;;
14139;SDS011;7150;53.514;9.988;2023-08-21T03:09:29;15.77;;;5.50;;
14139;SDS011;7150;53.514;9.988;2023-08-21T03:11:55;16.70;;;5.37;;
14139;SDS011;7150;53.514;9.988;2023-08-21T03:14:20;13.47;;;5.67;;
14139;SDS011;7150;53.514;9.988;2023-08-21T03:16:46;17.10;;;5.23;;
14139;SDS011;7150;53.514;9.988;2023-08-21T03:19:11;15.70;;;5.23;;
14139;SDS011;7150;53.514;9.988;2023-08-21T03:21:37;17.67;;;5.23;;
14139;SDS011;7150;53.514;9.988;2023-08-21T03:24:02;13.67;;;4.80;;
14139;SDS011;7150;53.514;9.988;2023-08-21T03:26:28;16.23;;;5.53;;
14139;SDS011;7150;53.514;9.988;2023-08-21T03:28:53;17.70;;;5.30;;
14139;SDS011;7150;53.514;9.988;2023-08-21T03:31:19;14.23;;;5.53;;
14139;SDS011;7150;53.514;9.988;2023-08-21T03:33:44;14.10;;;5.10;;
14139;SDS011;7150;53.514;9.988;2023-08-21T03:36:11;12.03;;;5.03;;
14139;SDS011;7150;53.514;9.988;2023-08-21T03:38:37;12.27;;;5.03;;
14139;SDS011;7150;53.514;9.988;2023-08-21T03:41:02;14.33;;;5.97;;
14139;SDS011;7150;53.514;9.988;2023-08-21T03:43:30;14.07;;;5.63;;
14139;SDS011;7150;53.514;9.988;2023-08-21T03:45:55;13.67;;;6.07;;
14139;SDS011;7150;53.514;9.988;2023-08-21T03:48:21;17.60;;;6.60;;
14139;SDS011;7150;53.514;9.988;2023-08-21T03:50:47;19.00;;;6.47;;
14139;SDS011;7150;53.514;9.988;2023-08-21T03:53:14;14.63;;;6.10;;
14139;SDS011;7150;53.514;9.988;2023-08-21T03:55:39;15.20;;;6.63;;
14139;SDS011;7150;53.514;9.988;2023-08-21T03:58:05;12.30;;;5.77;;
14139;SDS011;7150;53.514;9.988;2023-08-21T04:00:30;14.33;;;6.10;;
14139;SDS011;7150;53.514;9.988;2023-08-21T04:02:55;18.00;;;6.87;;
14139;SDS011;7150;53.514;9.988;2023-08-21T04:05:22;17.80;;;6.63;;
14139;SDS011;7150;53.514;9.988;2023-08-21T04:07:47;15.30;;;5.77;;
14139;SDS011;7150;53.514;9.988;2023-08-21T04:10:13;15.23;;;5.90;;
14139;SDS011;7150;53.514;9.988;2023-08-21T04:12:38;13.07;;;5.40;;
14139;SDS011;7150;53.514;9.988;2023-08-21T04:15:04;11.33;;;5.47;;
14139;SDS011;7150;53.514;9.988;2023-08-21T04:17:31;13.23;;;5.70;;
14139;SDS011;7150;53.514;9.988;2023-08-21T04:19:56;16.00;;;5.90;;
14139;SDS011;7150;53.514;9.988;2023-08-21T04:22:22;17.73;;;5.80;;
14139;SDS011;7150;53.514;9.988;2023-08-21T04:24:47;13.10;;;5.50;;
14139;SDS011;7150;53.514;9.988;2023-08-21T04:27:13;10.20;;;5.73;;
14139;SDS011;7150;53.514;9.988;2023-08-21T04:29:38;14.70;;;5.40;;
14139;SDS011;7150;53.514;9.988;2023-08-21T04:32:04;11.33;;;5.37;;
14139;SDS011;7150;53.514;9.988;2023-08-21T04:34:32;13.67;;;5.33;;
14139;SDS011;7150;53.514;9.988;2023-08-21T04:36:57;17.60;;;6.27;;
14139;SDS011;7150;53.514;9.988;2023-08-21T04:39:23;17.07;;;5.20;;
14139;SDS011;7150;53.514;9.988;2023-08-21T04:41:48;12.30;;;5.90;;
14139;SDS011;7150;53.514;9.988;2023-08-21T04:44:14;13.27;;;5.67;;
14139;SDS011;7150;53.514;9.988;2023-08-21T04:46:40;16.33;;;6.20;;
14139;SDS011;7150;53.514;9.988;2023-08-21T04:49:05;12.07;;;6.33;;
14139;SDS011;7150;53.514;9.988;2023-08-21T04:51:30;15.00;;;6.63;;
14139;SDS011;7150;53.514;9.988;2023-08-21T04:53:56;19.03;;;6.20;;
14139;SDS011;7150;53.514;9.988;2023-08-21T04:56:24;14.37;;;6.73;;
14139;SDS011;7150;53.514;9.988;2023-08-21T04:58:50;18.73;;;6.70;;
14139;SDS011;7150;53.514;9.988;2023-08-21T05:01:15;12.97;;;5.67;;
14139;SDS011;7150;53.514;9.988;2023-08-21T05:03:41;17.20;;;5.87;;
14139;SDS011;7150;53.514;9.988;2023-08-21T05:06:06;17.23;;;5.97;;
14139;SDS011;7150;53.514;9.988;2023-08-21T05:08:32;15.13;;;5.40;;
14139;SDS011;7150;53.514;9.988;2023-08-21T05:10:59;12.80;;;5.40;;
14139;SDS011;7150;53.514;9.988;2023-08-21T05:13:25;14.20;;;5.60;;
14139;SDS011;7150;53.514;9.988;2023-08-21T05:15:53;11.57;;;6.30;;
14139;SDS011;7150;53.514;9.988;2023-08-21T05:18:23;15.13;;;5.83;;
14139;SDS011;7150;53.514;9.988;2023-08-21T05:20:49;13.10;;;5.97;;
14139;SDS011;7150;53.514;9.988;2023-08-21T05:23:16;12.80;;;5.57;;
14139;SDS011;7150;53.514;9.988;2023-08-21T05:25:42;17.83;;;6.10;;
14139;SDS011;7150;53.514;9.988;2023-08-21T05:28:10;14.17;;;5.70;;
14139;SDS011;7150;53.514;9.988;2023-08-21T05:30:36;14.10;;;5.90;;
14139;SDS011;7150;53.514;9.988;2023-08-21T05:33:02;15.57;;;5.40;;
14139;SDS011;7150;53.514;9.988;2023-08-21T05:35:28;18.17;;;6.10;;
14139;SDS011;7150;53.514;9.988;2023-08-21T05:37:57;15.17;;;5.57;;
14139;SDS011;7150;53.514;9.988;2023-08-21T05:40:23;21.50;;;5.60;;
14139;SDS011;7150;53.514;9.988;2023-08-21T05:42:48;15.90;;;6.30;;
14139;SDS011;7150;53.514;9.988;2023-08-21T05:45:13;22.93;;;5.87;;
14139;SDS011;7150;53.514;9.988;2023-08-21T05:47:39;10.40;;;5.17;;
14139;SDS011;7150;53.514;9.988;2023-08-21T05:50:05;19.23;;;5.73;;
14139;SDS011;7150;53.514;9.988;2023-08-21T05:52:30;15.17;;;5.73;;
14139;SDS011;7150;53.514;9.988;2023-08-21T05:54:56;9.90;;;4.83;;
14139;SDS011;7150;53.514;9.988;2023-08-21T05:57:21;14.43;;;5.80;;
14139;SDS011;7150;53.514;9.988;2023-08-21T05:59:47;14.43;;;5.63;;
14139;SDS011;7150;53.514;9.988;2023-08-21T06:02:13;13.77;;;6.20;;
14139;SDS011;7150;53.514;9.988;2023-08-21T06:04:42;18.37;;;5.70;;
14139;SDS011;7150;53.514;9.988;2023-08-21T06:07:08;16.93;;;6.20;;
14139;SDS011;7150;53.514;9.988;2023-08-21T06:09:34;15.63;;;5.83;;
14139;SDS011;7150;53.514;9.988;2023-08-21T06:12:00;11.53;;;5.37;;
14139;SDS011;7150;53.514;9.988;2023-08-21T06:14:26;13.93;;;5.73;;
14139;SDS011;7150;53.514;9.988;2023-08-21T06:16:56;14.17;;;5.23;;
14139;SDS011;7150;53.514;9.988;2023-08-21T06:19:22;14.97;;;5.40;;
14139;SDS011;7150;53.514;9.988;2023-08-21T06:21:48;17.97;;;5.33;;
14139;SDS011;7150;53.514;9.988;2023-08-21T06:24:13;14.30;;;4.97;;
14139;SDS011;7150;53.514;9.988;2023-08-21T06:26:39;12.27;;;4.50;;
14139;SDS011;7150;53.514;9.988;2023-08-21T06:29:05;16.80;;;4.90;;
14139;SDS011;7150;53.514;9.988;2023-08-21T06:31:30;14.63;;;4.87;;
14139;SDS011;7150;53.514;9.988;2023-08-21T06:33:56;13.83;;;5.23;;
14139;SDS011;7150;53.514;9.988;2023-08-21T06:36:22;14.80;;;4.00;;
14139;SDS011;7150;53.514;9.988;2023-08-21T06:38:47;16.33;;;4.30;;
14139;SDS011;7150;53.514;9.988;2023-08-21T06:41:13;12.87;;;4.30;;
14139;SDS011;7150;53.514;9.988;2023-08-21T06:43:38;14.57;;;3.70;;
14139;SDS011;7150;53.514;9.988;2023-08-21T06:46:04;11.03;;;3.73;;
14139;SDS011;7150;53.514;9.988;2023-08-21T06:48:30;11.17;;;3.67;;
14139;SDS011;7150;53.514;9.988;2023-08-21T06:50:56;12.63;;;3.80;;
14139;SDS011;7150;53.514;9.988;2023-08-21T06:53:21;8.23;;;3.40;;
14139;SDS011;7150;53.514;9.988;2023-08-21T06:55:47;9.60;;;2.93;;
14139;SDS011;7150;53.514;9.988;2023-08-21T06:58:13;10.80;;;3.70;;
14139;SDS011;7150;53.514;9.988;2023-08-21T07:00:38;9.70;;;4.00;;
14139;SDS011;7150;53.514;9.988;2023-08-21T07:03:04;11.20;;;3.07;;
14139;SDS011;7150;53.514;9.988;2023-08-21T07:05:32;12.23;;;3.57;;
14139;SDS011;7150;53.514;9.988;2023-08-21T07:07:58;12.63;;;3.23;;
14139;SDS011;7150;53.514;9.988;2023-08-21T07:10:24;9.60;;;2.90;;
14139;SDS011;7150;53.514;9.988;2023-08-21T07:12:49;9.90;;;2.57;;
14139;SDS011;7150;53.514;9.988;2023-08-21T07:15:15;10.37;;;2.90;;
14139;SDS011;7150;53.514;9.988;2023-08-21T07:17:41;6.60;;;2.30;;
14139;SDS011;7150;53.514;9.988;2023-08-21T07:20:06;9.10;;;2.83;;
14139;SDS011;7150;53.514;9.988;2023-08-21T07:22:32;7.87;;;2.40;;
14139;SDS011;7150;53.514;9.988;2023-08-21T07:24:58;7.17;;;2.20;;
14139;SDS011;7150;53.514;9.988;2023-08-21T07:27:28;8.70;;;2.70;;
14139;SDS011;7150;53.514;9.988;2023-08-21T07:29:55;9.60;;;2.90;;
14139;SDS011;7150;53.514;9.988;2023-08-21T07:32:20;8.47;;;2.50;;
14139;SDS011;7150;53.514;9.988;2023-08-21T07:34:46;7.77;;;2.50;;
14139;SDS011;7150;53.514;9.988;2023-08-21T07:37:11;6.80;;;2.83;;
14139;SDS011;7150;53.514;9.988;2023-08-21T07:39:36;6.73;;;2.30;;
14139;SDS011;7150;53.514;9.988;2023-08-21T07:42:02;7.77;;;2.60;;
14139;SDS011;7150;53.514;9.988;2023-08-21T07:44:28;10.73;;;2.53;;
14139;SDS011;7150;53.514;9.988;2023-08-21T07:46:53;7.23;;;2.00;;
14139;SDS011;7150;53.514;9.988;2023-08-21T07:49:18;10.77;;;2.80;;
14139;SDS011;7150;53.514;9.988;2023-08-21T07:51:44;8.90;;;2.67;;
14139;SDS011;7150;53.514;9.988;2023-08-21T07:54:09;6.20;;;1.93;;
14139;SDS011;7150;53.514;9.988;2023-08-21T07:56:36;8.27;;;2.23;;
14139;SDS011;7150;53.514;9.988;2023-08-21T07:59:02;5.57;;;2.50;;
14139;SDS011;7150;53.514;9.988;2023-08-21T08:01:28;5.97;;;2.30;;
14139;SDS011;7150;53.514;9.988;2023-08-21T08:03:53;6.00;;;2.17;;
14139;SDS011;7150;53.514;9.988;2023-08-21T08:06:19;11.83;;;2.67;;
14139;SDS011;7150;53.514;9.988;2023-08-21T08:08:44;11.83;;;2.67;;
14139;SDS011;7150;53.514;9.988;2023-08-21T08:11:10;6.53;;;2.47;;
14139;SDS011;7150;53.514;9.988;2023-08-21T08:13:36;7.90;;;2.23;;
14139;SDS011;7150;53.514;9.988;2023-08-21T08:16:02;9.40;;;3.77;;
14139;SDS011;7150;53.514;9.988;2023-08-21T08:18:27;16.13;;;4.60;;
14139;SDS011;7150;53.514;9.988;2023-08-21T08:20:53;8.37;;;2.53;;
14139;SDS011;7150;53.514;9.988;2023-08-21T08:23:19;6.87;;;2.23;;
14139;SDS011;7150;53.514;9.988;2023-08-21T08:25:45;4.53;;;1.80;;
14139;SDS011;7150;53.514;9.988;2023-08-21T08:28:10;7.40;;;1.80;;
14139;SDS011;7150;53.514;9.988;2023-08-21T08:30:36;9.40;;;1.80;;
14139;SDS011;7150;53.514;9.988;2023-08-21T08:33:01;3.27;;;1.60;;
14139;SDS011;7150;53.514;9.988;2023-08-21T08:35:27;11.23;;;2.10;;
14139;SDS011;7150;53.514;9.988;2023-08-21T08:37:53;6.13;;;1.70;;
14139;SDS011;7150;53.514;9.988;2023-08-21T08:40:18;6.53;;;1.83;;
14139;SDS011;7150;53.514;9.988;2023-08-21T08:42:44;6.60;;;2.30;;
14139;SDS011;7150;53.514;9.988;2023-08-21T08:45:09;4.50;;;1.43;;
14139;SDS011;7150;53.514;9.988;2023-08-21T08:47:38;6.53;;;2.00;;
14139;SDS011;7150;53.514;9.988;2023-08-21T08:50:06;3.43;;;1.60;;
14139;SDS011;7150;53.514;9.988;2023-08-21T08:52:37;6.43;;;1.57;;
14139;SDS011;7150;53.514;9.988;2023-08-21T08:55:04;11.10;;;1.90;;
14139;SDS011;7150;53.514;9.988;2023-08-21T08:57:33;4.03;;;2.00;;
14139;SDS011;7150;53.514;9.988;2023-08-21T08:59:59;6.20;;;1.80;;
14139;SDS011;7150;53.514;9.988;2023-08-21T09:02:25;6.60;;;1.70;;
14139;SDS011;7150;53.514;9.988;2023-08-21T09:04:51;4.73;;;1.90;;
14139;SDS011;7150;53.514;9.988;2023-08-21T09:07:17;7.70;;;1.90;;
14139;SDS011;7150;53.514;9.988;2023-08-21T09:09:45;3.43;;;1.60;;
14139;SDS011;7150;53.514;9.988;2023-08-21T09:12:12;5.00;;;1.80;;
14139;SDS011;7150;53.514;9.988;2023-08-21T09:14:39;7.20;;;2.13;;
14139;SDS011;7150;53.514;9.988;2023-08-21T09:17:05;7.17;;;1.80;;
14139;SDS011;7150;53.514;9.988;2023-08-21T09:19:31;4.93;;;1.90;;
14139;SDS011;7150;53.514;9.988;2023-08-21T09:21:57;5.43;;;1.73;;
14139;SDS011;7150;53.514;9.988;2023-08-21T09:24:22;2.23;;;1.30;;
14139;SDS011;7150;53.514;9.988;2023-08-21T09:26:49;3.40;;;1.43;;
14139;SDS011;7150;53.514;9.988;2023-08-21T09:29:15;7.53;;;2.87;;
14139;SDS011;7150;53.514;9.988;2023-08-21T09:31:40;10.27;;;3.33;;
14139;SDS011;7150;53.514;9.988;2023-08-21T09:34:08;6.20;;;2.50;;
14139;SDS011;7150;53.514;9.988;2023-08-21T09:36:34;7.70;;;2.40;;
14139;SDS011;7150;53.514;9.988;2023-08-21T09:39:01;5.43;;;1.80;;
14139;SDS011;7150;53.514;9.988;2023-08-21T09:41:28;5.97;;;2.00;;
14139;SDS011;7150;53.514;9.988;2023-08-21T09:43:54;7.07;;;1.60;;
14139;SDS011;7150;53.514;9.988;2023-08-21T09:46:24;6.00;;;1.90;;
14139;SDS011;7150;53.514;9.988;2023-08-21T09:48:51;5.47;;;1.63;;
14139;SDS011;7150;53.514;9.988;2023-08-21T09:51:17;7.00;;;1.50;;
14139;SDS011;7150;53.514;9.988;2023-08-21T09:53:43;7.00;;;1.53;;
14139;SDS011;7150;53.514;9.988;2023-08-21T09:56:09;4.67;;;1.80;;
14139;SDS011;7150;53.514;9.988;2023-08-21T09:58:35;5.07;;;1.53;;
14139;SDS011;7150;53.514;9.988;2023-08-21T10:01:03;4.33;;;1.60;;
14139;SDS011;7150;53.514;9.988;2023-08-21T10:03:36;5.97;;;1.53;;
14139;SDS011;7150;53.514;9.988;2023-08-21T10:06:04;3.13;;;1.60;;
14139;SDS011;7150;53.514;9.988;2023-08-21T10:08:31;4.30;;;2.10;;
14139;SDS011;7150;53.514;9.988;2023-08-21T10:11:01;5.10;;;1.50;;
14139;SDS011;7150;53.514;9.988;2023-08-21T10:13:29;3.27;;;1.53;;
14139;SDS011;7150;53.514;9.988;2023-08-21T10:15:56;4.07;;;1.30;;
14139;SDS011;7150;53.514;9.988;2023-08-21T10:18:29;5.73;;;1.90;;
14139;SDS011;7150;53.514;9.988;2023-08-21T10:21:04;3.53;;;1.60;;
14139;SDS011;7150;53.514;9.988;2023-08-21T10:23:43;4.03;;;1.50;;
14139;SDS011;7150;53.514;9.988;2023-08-21T10:26:12;4.33;;;1.67;;
14139;SDS011;7150;53.514;9.988;2023-08-21T10:28:47;4.23;;;1.50;;
14139;SDS011;7150;53.514;9.988;2023-08-21T10:33:56;5.60;;;1.80;;
14139;SDS011;7150;53.514;9.988;2023-08-21T10:37:02;3.43;;;1.63;;
14139;SDS011;7150;53.514;9.988;2023-08-21T10:39:37;4.37;;;1.80;;
14139;SDS011;7150;53.514;9.988;2023-08-21T10:49:53;5.93;;;2.07;;
14139;SDS011;7150;53.514;9.988;2023-08-21T10:52:26;5.80;;;1.87;;
14139;SDS011;7150;53.514;9.988;2023-08-21T10:54:54;5.83;;;2.00;;
14139;SDS011;7150;53.514;9.988;2023-08-21T10:57:22;2.90;;;1.40;;
14139;SDS011;7150;53.514;9.988;2023-08-21T10:59:52;5.20;;;1.70;;
14139;SDS011;7150;53.514;9.988;2023-08-21T11:02:21;5.77;;;1.50;;
14139;SDS011;7150;53.514;9.988;2023-08-21T11:04:48;4.37;;;1.67;;
14139;SDS011;7150;53.514;9.988;2023-08-21T11:07:14;3.23;;;1.60;;
14139;SDS011;7150;53.514;9.988;2023-08-21T11:09:40;3.17;;;1.50;;
14139;SDS011;7150;53.514;9.988;2023-08-21T11:12:15;5.77;;;1.30;;
14139;SDS011;7150;53.514;9.988;2023-08-21T11:14:42;4.00;;;1.50;;
14139;SDS011;7150;53.514;9.988;2023-08-21T11:17:08;4.57;;;1.50;;
14139;SDS011;7150;53.514;9.988;2023-08-21T11:19:35;3.17;;;1.03;;
14139;SDS011;7150;53.514;9.988;2023-08-21T11:22:02;3.17;;;1.20;;
14139;SDS011;7150;53.514;9.988;2023-08-21T11:27:09;9.23;;;1.97;;
14139;SDS011;7150;53.514;9.988;2023-08-21T11:29:40;3.27;;;1.60;;
14139;SDS011;7150;53.514;9.988;2023-08-21T11:32:16;7.87;;;1.60;;
14139;SDS011;7150;53.514;9.988;2023-08-21T11:34:50;3.83;;;1.90;;
14139;SDS011;7150;53.514;9.988;2023-08-21T11:37:20;3.90;;;1.40;;
14139;SDS011;7150;53.514;9.988;2023-08-21T11:39:47;3.57;;;1.30;;
14139;SDS011;7150;53.514;9.988;2023-08-21T11:42:14;5.53;;;1.67;;
14139;SDS011;7150;53.514;9.988;2023-08-21T11:44:45;3.10;;;1.50;;
14139;SDS011;7150;53.514;9.988;2023-08-21T11:47:12;6.87;;;1.90;;
14139;SDS011;7150;53.514;9.988;2023-08-21T11:49:42;2.20;;;1.20;;
14139;SDS011;7150;53.514;9.988;2023-08-21T11:52:08;4.13;;;1.53;;
14139;SDS011;7150;53.514;9.988;2023-08-21T11:54:35;2.13;;;1.20;;
14139;SDS011;7150;53.514;9.988;2023-08-21T11:57:06;6.13;;;1.50;;
14139;SDS011;7150;53.514;9.988;2023-08-21T11:59:33;3.17;;;1.17;;
14139;SDS011;7150;53.514;9.988;2023-08-21T12:01:58;5.13;;;1.90;;
14139;SDS011;7150;53.514;9.988;2023-08-21T12:04:24;2.30;;;1.30;;
14139;SDS011;7150;53.514;9.988;2023-08-21T12:06:50;6.00;;;1.43;;
14139;SDS011;7150;53.514;9.988;2023-08-21T12:09:15;3.47;;;1.30;;
14139;SDS011;7150;53.514;9.988;2023-08-21T12:11:41;3.20;;;1.40;;
14139;SDS011;7150;53.514;9.988;2023-08-21T12:14:06;4.37;;;2.03;;
14139;SDS011;7150;53.514;9.988;2023-08-21T12:16:32;3.80;;;1.40;;
14139;SDS011;7150;53.514;9.988;2023-08-21T12:18:58;5.63;;;1.47;;
14139;SDS011;7150;53.514;9.988;2023-08-21T12:21:24;3.70;;;1.87;;
14139;SDS011;7150;53.514;9.988;2023-08-21T12:23:50;3.60;;;1.63;;
14139;SDS011;7150;53.514;9.988;2023-08-21T12:26:15;6.60;;;2.50;;
14139;SDS011;7150;53.514;9.988;2023-08-21T12:28:47;3.37;;;1.40;;
14139;SDS011;7150;53.514;9.988;2023-08-21T12:31:14;5.40;;;1.67;;
14139;SDS011;7150;53.514;9.988;2023-08-21T12:33:40;3.90;;;1.90;;
14139;SDS011;7150;53.514;9.988;2023-08-21T12:36:06;5.23;;;1.70;;
14139;SDS011;7150;53.514;9.988;2023-08-21T12:38:33;3.53;;;1.53;;
14139;SDS011;7150;53.514;9.988;2023-08-21T12:40:59;8.57;;;1.87;;
14139;SDS011;7150;53.514;9.988;2023-08-21T12:43:26;11.47;;;3.07;;
14139;SDS011;7150;53.514;9.988;2023-08-21T12:45:51;4.63;;;1.80;;
14139;SDS011;7150;53.514;9.988;2023-08-21T12:48:17;7.07;;;1.43;;
14139;SDS011;7150;53.514;9.988;2023-08-21T12:50:42;6.63;;;1.93;;
14139;SDS011;7150;53.514;9.988;2023-08-21T12:53:08;11.90;;;2.30;;
14139;SDS011;7150;53.514;9.988;2023-08-21T12:55:33;3.13;;;2.30;;
14139;SDS011;7150;53.514;9.988;2023-08-21T12:57:59;4.47;;;1.50;;
14139;SDS011;7150;53.514;9.988;2023-08-21T13:00:24;2.63;;;1.50;;
14139;SDS011;7150;53.514;9.988;2023-08-21T13:02:50;5.10;;;1.93;;
14139;SDS011;7150;53.514;9.988;2023-08-21T13:05:16;3.80;;;1.63;;
14139;SDS011;7150;53.514;9.988;2023-08-21T13:07:41;3.27;;;1.80;;
14139;SDS011;7150;53.514;9.988;2023-08-21T13:10:07;4.43;;;1.60;;
14139;SDS011;7150;53.514;9.988;2023-08-21T13:12:33;6.37;;;1.50;;
14139;SDS011;7150;53.514;9.988;2023-08-21T13:14:59;3.10;;;1.60;;
14139;SDS011;7150;53.514;9.988;2023-08-21T13:17:25;4.53;;;1.40;;
14139;SDS011;7150;53.514;9.988;2023-08-21T13:19:50;7.23;;;1.93;;
14139;SDS011;7150;53.514;9.988;2023-08-21T13:22:16;4.63;;;1.70;;
14139;SDS011;7150;53.514;9.988;2023-08-21T13:24:42;3.53;;;1.43;;
14139;SDS011;7150;53.514;9.988;2023-08-21T13:27:08;3.13;;;1.40;;
14139;SDS011;7150;53.514;9.988;2023-08-21T13:29:33;2.73;;;1.40;;
14139;SDS011;7150;53.514;9.988;2023-08-21T13:31:59;2.67;;;1.50;;
14139;SDS011;7150;53.514;9.988;2023-08-21T13:34:24;2.77;;;1.77;;
14139;SDS011;7150;53.514;9.988;2023-08-21T13:36:49;6.13;;;2.27;;
14139;SDS011;7150;53.514;9.988;2023-08-21T13:39:16;1.73;;;1.60;;
14139;SDS011;7150;53.514;9.988;2023-08-21T13:41:41;5.70;;;2.07;;
14139;SDS011;7150;53.514;9.988;2023-08-21T13:44:07;3.37;;;1.60;;
14139;SDS011;7150;53.514;9.988;2023-08-21T13:46:33;3.93;;;1.63;;
14139;SDS011;7150;53.514;9.988;2023-08-21T13:48:59;4.13;;;2.33;;
14139;SDS011;7150;53.514;9.988;2023-08-21T13:51:24;2.57;;;1.43;;
14139;SDS011;7150;53.514;9.988;2023-08-21T13:53:50;2.13;;;1.40;;
14139;SDS011;7150;53.514;9.988;2023-08-21T13:56:16;2.23;;;1.73;;
14139;SDS011;7150;53.514;9.988;2023-08-21T13:58:41;4.43;;;1.30;;
14139;SDS011;7150;53.514;9.988;2023-08-21T14:01:07;4.27;;;1.10;;
14139;SDS011;7150;53.514;9.988;2023-08-21T14:03:33;3.83;;;1.50;;
14139;SDS011;7150;53.514;9.988;2023-08-21T14:05:59;1.67;;;1.30;;
14139;SDS011;7150;53.514;9.988;2023-08-21T14:08:24;3.60;;;1.50;;
14139;SDS011;7150;53.514;9.988;2023-08-21T14:10:50;2.10;;;1.30;;
14139;SDS011;7150;53.514;9.988;2023-08-21T14:13:15;4.37;;;1.80;;
14139;SDS011;7150;53.514;9.988;2023-08-21T14:15:41;3.40;;;1.70;;
14139;SDS011;7150;53.514;9.988;2023-08-21T14:18:06;1.73;;;1.20;;
14139;SDS011;7150;53.514;9.988;2023-08-21T14:20:32;3.40;;;1.40;;
14139;SDS011;7150;53.514;9.988;2023-08-21T14:22:58;4.30;;;1.63;;
14139;SDS011;7150;53.514;9.988;2023-08-21T14:25:23;1.90;;;1.30;;
14139;SDS011;7150;53.514;9.988;2023-08-21T14:27:49;3.17;;;1.50;;
14139;SDS011;7150;53.514;9.988;2023-08-21T14:30:15;6.83;;;1.80;;
14139;SDS011;7150;53.514;9.988;2023-08-21T14:32:40;4.03;;;1.43;;
14139;SDS011;7150;53.514;9.988;2023-08-21T14:35:07;2.13;;;1.57;;
14139;SDS011;7150;53.514;9.988;2023-08-21T14:37:33;6.23;;;1.37;;
14139;SDS011;7150;53.514;9.988;2023-08-21T14:39:59;3.80;;;1.53;;
14139;SDS011;7150;53.514;9.988;2023-08-21T14:42:24;1.77;;;1.40;;
14139;SDS011;7150;53.514;9.988;2023-08-21T14:44:50;5.23;;;1.43;;
14139;SDS011;7150;53.514;9.988;2023-08-21T14:47:15;2.33;;;1.50;;
14139;SDS011;7150;53.514;9.988;2023-08-21T14:49:40;3.90;;;1.83;;
14139;SDS011;7150;53.514;9.988;2023-08-21T14:52:06;2.50;;;1.43;;
14139;SDS011;7150;53.514;9.988;2023-08-21T14:54:33;3.17;;;1.53;;
14139;SDS011;7150;53.514;9.988;2023-08-21T14:56:59;2.43;;;1.17;;
14139;SDS011;7150;53.514;9.988;2023-08-21T14:59:25;2.87;;;1.80;;
14139;SDS011;7150;53.514;9.988;2023-08-21T15:01:50;2.77;;;1.43;;
14139;SDS011;7150;53.514;9.988;2023-08-21T15:04:16;1.70;;;1.40;;
14139;SDS011;7150;53.514;9.988;2023-08-21T15:06:42;4.57;;;1.47;;
14139;SDS011;7150;53.514;9.988;2023-08-21T15:09:08;3.00;;;1.40;;